Sunday, April 21, 2019, 9:40 PM CDT
Back to Local

KT82, Fredericksburg, Gillespie County Airport

Location: Fredericksburg, TX, United States Lat: 30.244
Local Time: 9:40 PM CDT ( 2:40 GMT) Lon: -98.909
Time Zone: US/Central Elev: 1696 ft

Show me the last for .
Show Decoded

2019-04-21 21:15 METAR KT82 220215Z AUTO 15011G16KT 10SM SCT026 21/16 A2997 RMK AO2 T02110157 =
2019-04-21 20:55 METAR KT82 220155Z AUTO 15007G15KT 120V180 10SM CLR 22/16 A2997 RMK AO2
                 T02160157 =
2019-04-21 20:35 METAR KT82 220135Z AUTO 16009G16KT 10SM CLR 22/16 A2996 RMK AO2 T02220157 =
2019-04-21 20:15 METAR KT82 220115Z AUTO 15008KT 10SM CLR 23/15 A2995 RMK AO2 T02250151 =
2019-04-21 19:55 METAR KT82 220055Z AUTO 16011G15KT 10SM CLR 23/15 A2994 RMK AO2 T02320151 =
2019-04-21 19:35 METAR KT82 220035Z AUTO 15009G16KT 10SM CLR 24/15 A2993 RMK AO2 T02370150 =
2019-04-21 19:15 METAR KT82 220015Z AUTO 18012G16KT 10SM SCT044 24/14 A2993 RMK AO2 T02440144 =
2019-04-21 18:55 METAR KT82 212355Z AUTO 17014G19KT 10SM CLR 25/14 A2994 RMK AO2 T02490143 10272
                 20234 =
2019-04-21 18:35 METAR KT82 212335Z AUTO 17011G16KT 10SM SCT045 25/15 A2994 RMK AO2 T02510145 =
2019-04-21 18:15 METAR KT82 212315Z AUTO 18013G17KT 10SM CLR 26/15 A2994 RMK AO2 T02580146 =
2019-04-21 17:55 METAR KT82 212255Z AUTO 17014G22KT 10SM CLR 26/14 A2993 RMK AO2 T02610144 =
2019-04-21 17:35 METAR KT82 212235Z AUTO 16012G17KT 10SM CLR 27/15 A2993 RMK AO2 T02660147 =
2019-04-21 17:15 METAR KT82 212215Z AUTO 17013G18KT 10SM SCT047 27/15 A2993 RMK AO2 T02650145 =
2019-04-21 16:55 METAR KT82 212155Z AUTO 17011G21KT 10SM CLR 27/15 A2993 RMK AO2 T02680145 =
2019-04-21 16:35 METAR KT82 212135Z AUTO 18012G18KT 10SM CLR 27/14 A2993 RMK AO2 T02710137 =
2019-04-21 16:15 METAR KT82 212115Z AUTO 16012G18KT 10SM CLR 27/14 A2994 RMK AO2 T02700135 =
2019-04-21 15:55 METAR KT82 212055Z AUTO 16012G20KT 10SM CLR 27/14 A2994 RMK AO2 T02670140 =
2019-04-21 15:35 METAR KT82 212035Z AUTO 16011G20KT 10SM CLR 27/14 A2995 RMK AO2 T02680137 =
2019-04-21 15:15 METAR KT82 212015Z AUTO 17012G20KT 10SM CLR 27/14 A2995 RMK AO2 T02690142 =
2019-04-21 14:55 METAR KT82 211955Z AUTO 17011G17KT 10SM CLR 27/14 A2996 RMK AO2 T02650137 =
2019-04-21 14:35 METAR KT82 211935Z AUTO 19011G19KT 10SM CLR 26/14 A2997 RMK AO2 T02570142 =
2019-04-21 14:15 METAR KT82 211915Z AUTO 19014G18KT 10SM CLR 26/15 A2997 RMK AO2 T02550146 =
2019-04-21 13:55 METAR KT82 211855Z AUTO 18012KT 10SM CLR 25/14 A2998 RMK AO2 T02460141 =
2019-04-21 13:35 METAR KT82 211835Z AUTO 18013G16KT 10SM CLR 24/15 A2998 RMK AO2 T02400147 =
2019-04-21 13:15 METAR KT82 211815Z AUTO 19016G21KT 10SM CLR 24/14 A2999 RMK AO2 T02350141 =
2019-04-21 12:55 METAR KT82 211755Z AUTO 18014KT 160V220 10SM CLR 24/14 A3000 RMK AO2 T02350138
                 10235 20157 =
2019-04-21 12:35 METAR KT82 211735Z AUTO 19013G18KT 10SM CLR 23/14 A3000 RMK AO2 T02280140 =
2019-04-21 12:15 METAR KT82 211715Z AUTO 20012G18KT 10SM CLR 22/14 A3001 RMK AO2 T02210137 =
2019-04-21 11:55 METAR KT82 211655Z AUTO 20008G15KT 10SM CLR 21/14 A3001 RMK AO2 T02050140 =
2019-04-21 11:35 METAR KT82 211635Z AUTO 19012G17KT 10SM CLR 22/14 A3000 RMK AO2 T02180144 =
2019-04-21 11:15 METAR KT82 211615Z AUTO 20013G18KT 10SM SCT018 20/14 A2999 RMK AO2 T02010138 =
2019-04-21 10:55 METAR KT82 211555Z AUTO 19013G16KT 10SM BKN016 20/14 A3000 RMK AO2 T01980143 =
2019-04-21 10:35 METAR KT82 211535Z AUTO 19011G20KT 10SM OVC014 19/14 A3000 RMK AO2 T01890144 =
2019-04-21 10:15 METAR KT82 211515Z AUTO 18010G19KT 10SM OVC014 19/15 A2999 RMK AO2 T01870146 =
2019-04-21 09:55 METAR KT82 211455Z AUTO 19009KT 10SM OVC012 18/14 A2999 RMK AO2 T01800144 =
2019-04-21 09:35 METAR KT82 211435Z AUTO 19011G17KT 10SM OVC012 18/14 A2998 RMK AO2 T01760142 =
2019-04-21 09:15 METAR KT82 211415Z AUTO 19010G16KT 10SM OVC012 17/14 A2998 RMK AO2 T01720140 =
2019-04-21 08:55 METAR KT82 211355Z AUTO 19009KT 10SM OVC012 17/14 A2998 RMK AO2 T01680136 =
2019-04-21 08:35 METAR KT82 211335Z AUTO 20010KT 10SM OVC012 17/14 A2998 RMK AO2 T01650135 =
2019-04-21 08:15 METAR KT82 211315Z AUTO 19011G15KT 10SM OVC012 16/13 A2998 RMK AO2 T01620132 =
2019-04-21 07:55 METAR KT82 211255Z AUTO 19013KT 10SM OVC012 16/13 A2998 RMK AO2 T01600131 =
2019-04-21 07:35 METAR KT82 211235Z AUTO 19009KT 10SM OVC014 16/13 A2997 RMK AO2 T01600130 =
2019-04-21 07:15 METAR KT82 211215Z AUTO 20009KT 10SM OVC014 16/13 A2997 RMK AO2 T01580130 =
2019-04-21 06:55 METAR KT82 211155Z AUTO 19009G16KT 10SM OVC014 16/13 A2997 RMK AO2 T01560126
                 10165 20131 =
2019-04-21 06:35 METAR KT82 211135Z AUTO 20009KT 10SM BKN014 15/12 A2997 RMK AO2 T01510117 =
2019-04-21 06:15 METAR KT82 211115Z AUTO 19007KT 10SM CLR 14/11 A2996 RMK AO2 T01420105 =
2019-04-21 05:55 METAR KT82 211055Z AUTO 19005KT 10SM CLR 14/10 A2996 RMK AO2 T01420100 =
2019-04-21 05:35 METAR KT82 211035Z AUTO 20006KT 10SM CLR 14/10 A2996 RMK AO2 T01400095 =
2019-04-21 05:15 METAR KT82 211015Z AUTO 20006KT 10SM CLR 14/10 A2996 RMK AO2 T01410095 =
2019-04-21 04:55 METAR KT82 210955Z AUTO 19006KT 10SM CLR 14/10 A2995 RMK AO2 T01400096 =
2019-04-21 04:35 METAR KT82 210935Z AUTO 19005KT 10SM CLR 13/10 A2995 RMK AO2 T01340100 =
2019-04-21 04:15 METAR KT82 210915Z AUTO 18004KT 10SM CLR 13/10 A2995 RMK AO2 T01320098 =
2019-04-21 03:55 METAR KT82 210855Z AUTO 18003KT 10SM CLR 14/10 A2996 RMK AO2 T01360099 =
2019-04-21 03:35 METAR KT82 210835Z AUTO 18005KT 10SM CLR 13/10 A2996 RMK AO2 T01320095 =
2019-04-21 03:15 METAR KT82 210815Z AUTO 19005KT 10SM CLR 14/10 A2996 RMK AO2 T01400097 =
2019-04-21 02:55 METAR KT82 210755Z AUTO 18004KT 10SM CLR 14/10 A2997 RMK AO2 T01400095 =
2019-04-21 02:35 METAR KT82 210735Z AUTO 17004KT 10SM CLR 14/10 A2997 RMK AO2 T01440095 =
2019-04-21 02:15 METAR KT82 210715Z AUTO 18005KT 10SM CLR 15/10 A2997 RMK AO2 T01450096 =
2019-04-21 01:55 METAR KT82 210655Z AUTO 17008KT 10SM CLR 15/10 A2997 RMK AO2 T01530101 =
2019-04-21 01:35 METAR KT82 210635Z AUTO 18007KT 10SM CLR 16/11 A2998 RMK AO2 T01570106 =
2019-04-21 01:15 METAR KT82 210615Z AUTO 18004KT 10SM CLR 16/11 A2998 RMK AO2 T01610108 =
2019-04-21 00:55 METAR KT82 210555Z AUTO 18006KT 10SM CLR 17/11 A2998 RMK AO2 T01660110 10251
                 20166 402700046 =
2019-04-21 00:35 METAR KT82 210535Z AUTO 17005KT 10SM CLR 17/11 A2999 RMK AO2 T01710110 =
2019-04-21 00:15 METAR KT82 210515Z AUTO 18003KT 10SM CLR 18/11 A2999 RMK AO2 T01760107 =
2019-04-20 23:55 METAR KT82 210455Z AUTO 17006KT 10SM CLR 18/11 A2999 RMK AO2 T01770108 =
2019-04-20 23:35 METAR KT82 210435Z AUTO 15004KT 10SM CLR 18/11 A2999 RMK AO2 T01800105 =
2019-04-20 23:15 METAR KT82 210415Z AUTO 17007KT 10SM CLR 18/11 A2999 RMK AO2 T01760105 =
2019-04-20 22:55 METAR KT82 210355Z AUTO 17003KT 10SM CLR 18/10 A2999 RMK AO2 T01810101 =
2019-04-20 22:35 METAR KT82 210335Z AUTO 16003KT 10SM CLR 18/10 A2999 RMK AO2 T01820098 =
2019-04-20 22:15 METAR KT82 210315Z AUTO 15003KT 10SM CLR 18/10 A2999 RMK AO2 T01800098 =
2019-04-20 21:55 METAR KT82 210255Z AUTO 12003KT 10SM CLR 19/10 A2999 RMK AO2 T01880096 =

Support USWX by starting your Amazon purchase here.